createdAt,value
2022-10-30T00:01:43.937Z,24.88
2022-10-30T00:06:45.709Z,24.27
2022-10-30T00:11:47.359Z,23.30
2022-10-30T00:16:49.030Z,22.58
2022-10-30T00:21:50.687Z,20.60
2022-10-30T00:26:52.382Z,19.80
2022-10-30T00:31:54.052Z,20.33
2022-10-30T00:36:55.705Z,19.52
2022-10-30T00:41:57.441Z,21.10
2022-10-30T00:47:04.441Z,22.35
2022-10-30T00:52:09.645Z,19.58
2022-10-30T00:57:11.439Z,19.45
2022-10-30T01:02:13.369Z,23.20
2022-10-30T01:07:16.720Z,22.95
2022-10-30T01:12:18.384Z,19.77
2022-10-30T01:18:03.715Z,20.95
2022-10-30T01:23:27.124Z,22.00
2022-10-30T01:29:07.296Z,22.20
2022-10-30T01:34:21.272Z,21.77
2022-10-30T01:39:27.027Z,20.48
2022-10-30T01:44:32.283Z,20.40
2022-10-30T01:49:50.030Z,19.95
2022-10-30T01:55:18.232Z,15.43
2022-10-30T02:00:21.426Z,15.65
2022-10-30T02:05:43.273Z,14.93
2022-10-30T02:10:47.881Z,15.55
2022-10-30T02:15:50.419Z,16.08
2022-10-30T02:20:54.080Z,14.63
2022-10-30T02:25:55.768Z,15.27
2022-10-30T02:30:57.780Z,17.42
2022-10-30T02:35:59.562Z,15.52
2022-10-30T02:41:01.317Z,14.40
2022-10-30T02:46:04.147Z,15.95
2022-10-30T02:51:06.139Z,14.35
2022-10-30T02:56:10.319Z,14.20
2022-10-30T03:01:16.379Z,13.18
2022-10-30T03:06:18.821Z,14.65
2022-10-30T03:11:21.058Z,12.20
2022-10-30T03:16:25.597Z,12.82
2022-10-30T03:21:28.324Z,14.02
2022-10-30T03:26:29.997Z,14.52
2022-10-30T03:31:38.739Z,13.82
2022-10-30T03:36:53.830Z,14.55
2022-10-30T03:41:56.135Z,14.35
2022-10-30T03:46:58.588Z,14.48
2022-10-30T03:52:14.557Z,13.50
2022-10-30T03:57:16.288Z,14.85
2022-10-30T04:02:33.040Z,14.70
2022-10-30T04:07:34.757Z,14.88
2022-10-30T04:12:38.128Z,13.82
2022-10-30T04:17:39.892Z,13.60
2022-10-30T04:22:41.806Z,13.93
2022-10-30T04:27:44.791Z,14.23
2022-10-30T04:32:53.530Z,12.13
2022-10-30T04:37:56.686Z,13.10
2022-10-30T04:42:59.138Z,13.38
2022-10-30T04:48:06.642Z,12.38
2022-10-30T04:53:13.867Z,12.10
2022-10-30T04:58:16.281Z,11.50
2022-10-30T05:03:23.631Z,11.20
2022-10-30T05:08:25.459Z,11.55
2022-10-30T05:13:27.574Z,13.38
2022-10-30T05:18:29.317Z,12.15
2022-10-30T05:23:31.067Z,12.35
2022-10-30T05:28:32.946Z,12.43
2022-10-30T05:33:35.051Z,11.63
2022-10-30T05:38:36.995Z,11.65
2022-10-30T05:43:41.781Z,12.30
2022-10-30T05:48:43.558Z,11.57
2022-10-30T05:53:48.193Z,12.50
2022-10-30T05:58:50.404Z,12.70
2022-10-30T06:03:52.256Z,11.75
2022-10-30T06:08:54.038Z,12.57
2022-10-30T06:14:12.216Z,12.48
2022-10-30T06:19:25.523Z,11.70
2022-10-30T06:24:31.828Z,10.80
2022-10-30T06:29:54.868Z,10.93
2022-10-30T06:34:56.658Z,11.23
2022-10-30T06:39:59.291Z,11.68
2022-10-30T06:45:21.374Z,9.75
2022-10-30T06:50:24.273Z,10.35
2022-10-30T06:55:26.280Z,11.40
2022-10-30T07:00:41.142Z,9.68
2022-10-30T07:05:56.008Z,10.60
2022-10-30T07:10:58.712Z,9.50
2022-10-30T07:16:11.957Z,9.52
2022-10-30T07:21:17.093Z,8.88
2022-10-30T07:26:18.883Z,10.25
2022-10-30T07:31:34.855Z,10.25
2022-10-30T07:37:04.089Z,9.45
2022-10-30T07:42:18.104Z,10.05
2022-10-30T07:47:45.333Z,11.02
2022-10-30T07:53:07.317Z,10.82
2022-10-30T07:58:09.041Z,8.43
2022-10-30T08:03:24.574Z,12.93
2022-10-30T08:08:46.529Z,12.23
2022-10-30T08:13:56.166Z,12.05
2022-10-30T08:18:58.366Z,12.07
2022-10-30T08:24:00.563Z,11.63
2022-10-30T08:29:05.222Z,10.82
2022-10-30T08:34:07.223Z,10.45
2022-10-30T08:39:16.832Z,11.60
2022-10-30T08:44:32.155Z,9.73
2022-10-30T08:50:08.381Z,9.02
2022-10-30T08:55:12.242Z,8.93
2022-10-30T09:00:14.300Z,8.50
2022-10-30T09:05:34.358Z,9.88
2022-10-30T09:10:58.664Z,7.32
2022-10-30T09:16:02.711Z,6.63
2022-10-30T09:21:07.320Z,9.57
2022-10-30T09:26:20.770Z,8.82
2022-10-30T09:31:38.999Z,8.25
2022-10-30T09:36:44.083Z,6.57
2022-10-30T09:42:06.992Z,6.55
2022-10-30T09:47:42.582Z,7.93
2022-10-30T09:53:28.962Z,7.78
2022-10-30T09:58:52.742Z,7.53
2022-10-30T10:04:25.639Z,6.25
2022-10-30T10:09:49.015Z,7.82
2022-10-30T10:15:31.138Z,8.35
2022-10-30T10:20:41.488Z,9.60
2022-10-30T10:25:52.091Z,8.48
2022-10-30T10:31:06.331Z,8.88
2022-10-30T10:36:30.947Z,9.07
2022-10-30T10:41:35.279Z,9.40
2022-10-30T10:46:57.584Z,10.13
2022-10-30T10:52:09.059Z,9.95
2022-10-30T10:57:24.467Z,9.70
2022-10-30T11:03:00.950Z,11.23
2022-10-30T11:08:21.726Z,11.18
2022-10-30T11:13:28.318Z,11.35
2022-10-30T11:18:29.977Z,12.23
2022-10-30T11:23:42.131Z,11.40
2022-10-30T11:29:04.985Z,12.18
2022-10-30T11:34:37.010Z,10.05
2022-10-30T11:39:38.664Z,10.98
2022-10-30T11:44:45.003Z,10.25
2022-10-30T11:49:53.848Z,9.13
2022-10-30T11:55:10.444Z,7.82
2022-10-30T12:00:24.014Z,7.95
2022-10-30T12:05:25.634Z,7.68
2022-10-30T12:10:30.357Z,8.32
2022-10-30T12:15:37.429Z,8.10
2022-10-30T12:20:39.284Z,8.35
2022-10-30T12:25:47.519Z,7.43
2022-10-30T12:31:03.749Z,8.80
2022-10-30T12:36:19.088Z,9.60
2022-10-30T12:41:32.932Z,9.93
2022-10-30T12:46:53.361Z,8.48
2022-10-30T12:52:07.641Z,10.77
2022-10-30T12:57:15.052Z,10.93
2022-10-30T13:02:23.934Z,11.63
2022-10-30T13:07:38.760Z,11.43
2022-10-30T13:12:43.096Z,10.70
2022-10-30T13:17:44.756Z,10.93
2022-10-30T13:22:49.194Z,9.35
2022-10-30T13:28:17.692Z,10.23
2022-10-30T13:33:45.036Z,11.70
2022-10-30T13:38:46.659Z,11.13
2022-10-30T13:44:27.279Z,8.35
2022-10-30T13:49:40.798Z,6.75
2022-10-30T13:54:48.281Z,9.02
2022-10-30T14:00:16.158Z,14.25
2022-10-30T14:05:36.722Z,10.57
2022-10-30T14:10:45.717Z,10.77
2022-10-30T14:15:47.581Z,10.93
2022-10-30T14:20:54.575Z,9.80
2022-10-30T14:26:02.217Z,7.95
2022-10-30T14:31:10.294Z,10.88
2022-10-30T14:36:18.240Z,9.50
2022-10-30T14:41:26.935Z,7.43
2022-10-30T14:46:41.635Z,13.27
2022-10-30T14:52:04.587Z,15.02
2022-10-30T14:57:21.054Z,13.20
2022-10-30T15:02:37.739Z,12.43
2022-10-30T15:07:57.649Z,14.70
2022-10-30T15:13:22.660Z,15.80
2022-10-30T15:18:26.852Z,16.98
2022-10-30T15:23:35.827Z,16.92
2022-10-30T15:28:40.351Z,17.40
2022-10-30T15:33:41.996Z,15.45
2022-10-30T15:38:43.646Z,17.58
2022-10-30T15:43:45.477Z,16.45
2022-10-30T15:48:48.036Z,20.25
2022-10-30T15:53:53.046Z,23.45
2022-10-30T15:59:00.244Z,23.38
2022-10-30T16:04:01.890Z,21.67
2022-10-30T16:09:04.625Z,21.70
2022-10-30T16:14:15.268Z,22.88
2022-10-30T16:19:19.545Z,21.15
2022-10-30T16:24:29.630Z,22.85
2022-10-30T16:29:32.407Z,23.25
2022-10-30T16:34:35.788Z,21.77
2022-10-30T16:39:38.349Z,23.80
2022-10-30T16:44:40.083Z,22.80
2022-10-30T16:49:48.636Z,21.58
2022-10-30T16:55:18.859Z,22.10
2022-10-30T17:00:26.045Z,24.95
2022-10-30T17:05:34.272Z,23.45
2022-10-30T17:10:55.733Z,27.08
2022-10-30T17:15:57.888Z,27.65
2022-10-30T17:21:08.424Z,28.67
2022-10-30T17:26:11.473Z,30.10
2022-10-30T17:31:20.417Z,34.03
2022-10-30T17:36:22.094Z,35.60
2022-10-30T17:41:23.815Z,34.08
2022-10-30T17:46:25.557Z,32.38
2022-10-30T17:51:29.214Z,30.30
2022-10-30T17:56:33.676Z,29.75
2022-10-30T18:01:35.513Z,30.55
2022-10-30T18:06:37.256Z,34.72
2022-10-30T18:11:39.047Z,37.47
2022-10-30T18:16:40.741Z,35.88
2022-10-30T18:21:42.380Z,33.03
2022-10-30T18:26:44.593Z,31.95
2022-10-30T18:31:46.303Z,32.97
2022-10-30T18:36:48.574Z,35.47
2022-10-30T18:41:50.314Z,43.78
2022-10-30T18:46:52.188Z,41.80
2022-10-30T18:51:53.844Z,42.90
2022-10-30T18:56:55.476Z,39.83
2022-10-30T19:01:57.300Z,38.17
2022-10-30T19:06:59.022Z,35.65
2022-10-30T19:12:00.752Z,39.13
2022-10-30T19:17:02.457Z,45.22
2022-10-30T19:22:04.128Z,39.67
2022-10-30T19:27:05.775Z,40.75
2022-10-30T19:32:07.418Z,42.25
2022-10-30T19:37:09.558Z,46.95
2022-10-30T19:42:11.210Z,46.60
2022-10-30T19:47:12.866Z,44.95
2022-10-30T19:52:15.972Z,42.45
2022-10-30T20:02:20.784Z,39.75
2022-10-30T20:07:22.480Z,36.88
2022-10-30T20:12:24.285Z,36.83
2022-10-30T20:17:25.953Z,34.33
2022-10-30T20:22:28.512Z,33.33
2022-10-30T20:27:30.245Z,34.33
2022-10-30T20:32:31.925Z,34.50
2022-10-30T20:37:33.613Z,39.28
2022-10-30T20:42:37.370Z,38.63
2022-10-30T20:47:39.628Z,37.88
2022-10-30T20:52:41.905Z,37.33
2022-10-30T20:57:43.737Z,38.63
2022-10-30T21:02:45.490Z,35.38
2022-10-30T21:07:47.186Z,37.60
2022-10-30T21:12:48.935Z,35.08
2022-10-30T21:17:51.294Z,34.35
2022-10-30T21:22:52.940Z,34.60
2022-10-30T21:27:57.019Z,43.75
2022-10-30T21:32:59.586Z,44.65
2022-10-30T21:38:01.789Z,31.88
2022-10-30T21:43:04.597Z,31.27
2022-10-30T21:48:06.763Z,30.67
2022-10-30T21:53:08.606Z,31.95
2022-10-30T21:58:10.255Z,31.23
2022-10-30T22:03:11.941Z,32.33
2022-10-30T22:08:13.624Z,25.13
2022-10-30T22:13:15.373Z,23.00
2022-10-30T22:18:17.028Z,23.58
2022-10-30T22:23:18.721Z,24.17
2022-10-30T22:28:20.374Z,23.50
2022-10-30T22:33:22.082Z,23.08
2022-10-30T22:38:23.742Z,22.45
2022-10-30T22:43:25.418Z,19.30
2022-10-30T22:48:27.083Z,20.58
2022-10-30T22:53:30.426Z,20.15
2022-10-30T22:58:32.084Z,17.92
2022-10-30T23:03:33.793Z,12.65
2022-10-30T23:08:36.457Z,12.30
2022-10-30T23:13:38.450Z,11.98
2022-10-30T23:18:40.501Z,11.48
2022-10-30T23:23:43.490Z,10.75
2022-10-30T23:28:46.372Z,10.73
2022-10-30T23:33:49.135Z,11.82
2022-10-30T23:38:55.313Z,10.73
2022-10-30T23:43:59.109Z,9.77
2022-10-30T23:49:00.874Z,11.00
2022-10-30T23:54:02.777Z,10.82
2022-10-30T23:59:04.443Z,9.88
